sensor_id;sensor_type;location;lat;lon;timestamp;pressure;altitude;pressure_sealevel;temperature;humidity
30584;BME280;17357;59.404;18.414;2022-10-16T00:01:32;100581.88;;;22.45;99.81
30584;BME280;17357;59.404;18.414;2022-10-16T00:03:59;100577.44;;;22.44;99.76
30584;BME280;17357;59.404;18.414;2022-10-16T00:06:25;100575.81;;;22.43;100.00
30584;BME280;17357;59.404;18.414;2022-10-16T00:08:51;100564.94;;;22.45;100.00
30584;BME280;17357;59.404;18.414;2022-10-16T00:11:31;100565.31;;;22.44;100.00
30584;BME280;17357;59.404;18.414;2022-10-16T00:14:03;100571.78;;;22.44;100.00
30584;BME280;17357;59.404;18.414;2022-10-16T00:16:30;100571.78;;;22.44;100.00
30584;BME280;17357;59.404;18.414;2022-10-16T00:18:56;100575.44;;;22.48;100.00
30584;BME280;17357;59.404;18.414;2022-10-16T00:21:25;100572.63;;;22.48;100.00
30584;BME280;17357;59.404;18.414;2022-10-16T00:23:57;100565.75;;;22.46;100.00
30584;BME280;17357;59.404;18.414;2022-10-16T00:26:24;100575.03;;;22.46;100.00
30584;BME280;17357;59.404;18.414;2022-10-16T00:28:50;100567.38;;;22.47;100.00
30584;BME280;17357;59.404;18.414;2022-10-16T00:31:17;100564.94;;;22.45;100.00
30584;BME280;17357;59.404;18.414;2022-10-16T00:33:43;100567.75;;;22.45;100.00
30584;BME280;17357;59.404;18.414;2022-10-16T00:36:12;100562.09;;;22.45;100.00
30584;BME280;17357;59.404;18.414;2022-10-16T00:38:38;100550.81;;;22.45;100.00
30584;BME280;17357;59.404;18.414;2022-10-16T00:41:05;100550.00;;;22.45;100.00
30584;BME280;17357;59.404;18.414;2022-10-16T00:43:51;100553.63;;;22.45;100.00
30584;BME280;17357;59.404;18.414;2022-10-16T00:46:22;100549.16;;;22.44;100.00
30584;BME280;17357;59.404;18.414;2022-10-16T00:51:24;100547.16;;;22.45;100.00
30584;BME280;17357;59.404;18.414;2022-10-16T00:53:50;100553.19;;;22.43;100.00
30584;BME280;17357;59.404;18.414;2022-10-16T00:56:17;100542.72;;;22.44;100.00
30584;BME280;17357;59.404;18.414;2022-10-16T00:58:43;100537.88;;;22.44;100.00
30584;BME280;17357;59.404;18.414;2022-10-16T01:01:08;100544.31;;;22.41;100.00
30584;BME280;17357;59.404;18.414;2022-10-16T01:03:36;100545.91;;;22.42;100.00
30584;BME280;17357;59.404;18.414;2022-10-16T01:06:07;100552.38;;;22.43;100.00
30584;BME280;17357;59.404;18.414;2022-10-16T01:08:55;100541.06;;;22.39;100.00
30584;BME280;17357;59.404;18.414;2022-10-16T01:11:38;100527.75;;;22.40;100.00
30584;BME280;17357;59.404;18.414;2022-10-16T01:14:14;100526.13;;;22.42;100.00
30584;BME280;17357;59.404;18.414;2022-10-16T01:16:52;100527.75;;;22.43;100.00
30584;BME280;17357;59.404;18.414;2022-10-16T01:21:57;100545.91;;;22.42;100.00
30584;BME280;17357;59.404;18.414;2022-10-16T01:24:39;100533.38;;;22.36;100.00
30584;BME280;17357;59.404;18.414;2022-10-16T01:27:26;100536.97;;;22.33;100.00
30584;BME280;17357;59.404;18.414;2022-10-16T01:29:58;100550.34;;;22.36;100.00
30584;BME280;17357;59.404;18.414;2022-10-16T01:32:44;100554.75;;;22.37;100.00
30584;BME280;17357;59.404;18.414;2022-10-16T01:35:27;100556.31;;;22.31;100.00
30584;BME280;17357;59.404;18.414;2022-10-16T01:38:02;100553.91;;;22.30;100.00
30584;BME280;17357;59.404;18.414;2022-10-16T01:40:29;100553.09;;;22.29;100.00
30584;BME280;17357;59.404;18.414;2022-10-16T01:42:59;100559.97;;;22.32;100.00
30584;BME280;17357;59.404;18.414;2022-10-16T01:45:28;100549.06;;;22.30;100.00
30584;BME280;17357;59.404;18.414;2022-10-16T01:47:55;100558.75;;;22.29;100.00
30584;BME280;17357;59.404;18.414;2022-10-16T01:50:21;100558.75;;;22.33;100.00
30584;BME280;17357;59.404;18.414;2022-10-16T01:52:49;100560.38;;;22.30;100.00
30584;BME280;17357;59.404;18.414;2022-10-16T01:55:22;100561.94;;;22.24;100.00
30584;BME280;17357;59.404;18.414;2022-10-16T01:57:51;100565.59;;;22.28;100.00
30584;BME280;17357;59.404;18.414;2022-10-16T02:00:20;100564.75;;;22.24;100.00
30584;BME280;17357;59.404;18.414;2022-10-16T02:02:49;100557.88;;;22.25;99.99
30584;BME280;17357;59.404;18.414;2022-10-16T02:07:49;100535.25;;;22.22;100.00
30584;BME280;17357;59.404;18.414;2022-10-16T02:10:15;100538.91;;;22.22;100.00
30584;BME280;17357;59.404;18.414;2022-10-16T02:12:45;100533.63;;;22.21;100.00
30584;BME280;17357;59.404;18.414;2022-10-16T02:15:13;100537.28;;;22.21;100.00
30584;BME280;17357;59.404;18.414;2022-10-16T02:17:38;100548.13;;;22.19;100.00
30584;BME280;17357;59.404;18.414;2022-10-16T02:20:04;100541.72;;;22.22;100.00
30584;BME280;17357;59.404;18.414;2022-10-16T02:22:34;100542.94;;;22.21;100.00
30584;BME280;17357;59.404;18.414;2022-10-16T02:25:22;100540.47;;;22.16;100.00
30584;BME280;17357;59.404;18.414;2022-10-16T02:28:03;100537.28;;;22.21;100.00
30584;BME280;17357;59.404;18.414;2022-10-16T02:30:36;100536.47;;;22.21;100.00
30584;BME280;17357;59.404;18.414;2022-10-16T02:33:04;100540.47;;;22.20;100.00
30584;BME280;17357;59.404;18.414;2022-10-16T02:35:31;100544.97;;;22.24;100.00
30584;BME280;17357;59.404;18.414;2022-10-16T02:37:57;100551.00;;;22.23;100.00
30584;BME280;17357;59.404;18.414;2022-10-16T02:40:24;100557.03;;;22.21;100.00
30584;BME280;17357;59.404;18.414;2022-10-16T02:42:52;100569.97;;;22.22;100.00
30584;BME280;17357;59.404;18.414;2022-10-16T02:45:18;100564.31;;;22.22;100.00
30584;BME280;17357;59.404;18.414;2022-10-16T02:47:43;100549.78;;;22.20;100.00
30584;BME280;17357;59.404;18.414;2022-10-16T02:50:09;100527.59;;;22.22;100.00
30584;BME280;17357;59.404;18.414;2022-10-16T02:52:34;100530.81;;;22.21;100.00
30584;BME280;17357;59.404;18.414;2022-10-16T02:55:00;100526.34;;;22.20;100.00
30584;BME280;17357;59.404;18.414;2022-10-16T02:57:25;100520.31;;;22.21;100.00
30584;BME280;17357;59.404;18.414;2022-10-16T02:59:51;100510.59;;;22.15;100.00
30584;BME280;17357;59.404;18.414;2022-10-16T03:02:16;100511.41;;;22.19;100.00
30584;BME280;17357;59.404;18.414;2022-10-16T03:04:42;100524.78;;;22.22;100.00
30584;BME280;17357;59.404;18.414;2022-10-16T03:07:07;100507.84;;;22.22;100.00
30584;BME280;17357;59.404;18.414;2022-10-16T03:09:33;100506.19;;;22.21;100.00
30584;BME280;17357;59.404;18.414;2022-10-16T03:11:58;100504.63;;;22.24;100.00
30584;BME280;17357;59.404;18.414;2022-10-16T03:14:24;100508.59;;;22.19;100.00
30584;BME280;17357;59.404;18.414;2022-10-16T03:16:49;100507.41;;;22.20;100.00
30584;BME280;17357;59.404;18.414;2022-10-16T03:19:18;100504.56;;;22.20;100.00
30584;BME280;17357;59.404;18.414;2022-10-16T03:21:43;100500.56;;;22.21;100.00
30584;BME280;17357;59.404;18.414;2022-10-16T03:24:09;100490.81;;;22.15;100.00
30584;BME280;17357;59.404;18.414;2022-10-16T03:26:34;100498.94;;;22.20;100.00
30584;BME280;17357;59.404;18.414;2022-10-16T03:29:00;100497.28;;;22.19;100.00
30584;BME280;17357;59.404;18.414;2022-10-16T03:31:25;100499.34;;;22.19;100.00
30584;BME280;17357;59.404;18.414;2022-10-16T03:33:51;100520.25;;;22.14;100.00
30584;BME280;17357;59.404;18.414;2022-10-16T03:36:16;100514.59;;;22.14;100.00
30584;BME280;17357;59.404;18.414;2022-10-16T03:38:41;100511.03;;;22.17;100.00
30584;BME280;17357;59.404;18.414;2022-10-16T03:41:07;100508.19;;;22.17;100.00
30584;BME280;17357;59.404;18.414;2022-10-16T03:43:33;100498.91;;;22.17;100.00
30584;BME280;17357;59.404;18.414;2022-10-16T03:45:58;100502.53;;;22.17;100.00
30584;BME280;17357;59.404;18.414;2022-10-16T03:48:24;100502.94;;;22.19;100.00
30584;BME280;17357;59.404;18.414;2022-10-16T03:50:49;100498.09;;;22.16;100.00
30584;BME280;17357;59.404;18.414;2022-10-16T03:53:15;100489.59;;;22.13;100.00
30584;BME280;17357;59.404;18.414;2022-10-16T03:55:42;100492.00;;;22.10;100.00
30584;BME280;17357;59.404;18.414;2022-10-16T03:58:07;100482.72;;;22.13;99.83
30584;BME280;17357;59.404;18.414;2022-10-16T04:00:33;100488.34;;;22.10;99.59
30584;BME280;17357;59.404;18.414;2022-10-16T04:02:59;100480.69;;;22.10;99.69
30584;BME280;17357;59.404;18.414;2022-10-16T04:05:24;100482.41;;;22.22;100.00
30584;BME280;17357;59.404;18.414;2022-10-16T04:07:50;100479.69;;;22.36;100.00
30584;BME280;17357;59.404;18.414;2022-10-16T04:10:15;100462.00;;;22.46;100.00
30584;BME280;17357;59.404;18.414;2022-10-16T04:12:41;100478.22;;;22.60;100.00
30584;BME280;17357;59.404;18.414;2022-10-16T04:15:06;100485.63;;;22.75;100.00
30584;BME280;17357;59.404;18.414;2022-10-16T04:17:32;100495.00;;;22.90;100.00
30584;BME280;17357;59.404;18.414;2022-10-16T04:19:57;100493.03;;;23.01;100.00
30584;BME280;17357;59.404;18.414;2022-10-16T04:22:22;100482.97;;;23.11;100.00
30584;BME280;17357;59.404;18.414;2022-10-16T04:24:48;100482.59;;;23.19;100.00
30584;BME280;17357;59.404;18.414;2022-10-16T04:27:13;100495.97;;;23.26;99.65
30584;BME280;17357;59.404;18.414;2022-10-16T04:29:39;100501.66;;;23.37;100.00
30584;BME280;17357;59.404;18.414;2022-10-16T04:32:04;100498.84;;;23.44;100.00
30584;BME280;17357;59.404;18.414;2022-10-16T04:34:29;100500.53;;;23.52;100.00
30584;BME280;17357;59.404;18.414;2022-10-16T04:36:55;100503.78;;;23.57;100.00
30584;BME280;17357;59.404;18.414;2022-10-16T04:39:20;100482.75;;;23.62;100.00
30584;BME280;17357;59.404;18.414;2022-10-16T04:41:46;100503.41;;;23.73;100.00
30584;BME280;17357;59.404;18.414;2022-10-16T04:44:11;100489.25;;;23.77;100.00
30584;BME280;17357;59.404;18.414;2022-10-16T04:46:36;100488.84;;;23.78;100.00
30584;BME280;17357;59.404;18.414;2022-10-16T04:49:02;100496.56;;;23.88;100.00
30584;BME280;17357;59.404;18.414;2022-10-16T04:51:27;100487.25;;;23.95;100.00
30584;BME280;17357;59.404;18.414;2022-10-16T04:53:53;100479.56;;;23.95;100.00
30584;BME280;17357;59.404;18.414;2022-10-16T04:56:20;100475.53;;;24.07;100.00
30584;BME280;17357;59.404;18.414;2022-10-16T04:58:46;100486.06;;;24.10;100.00
30584;BME280;17357;59.404;18.414;2022-10-16T05:01:12;100483.63;;;24.15;100.00
30584;BME280;17357;59.404;18.414;2022-10-16T05:03:38;100474.72;;;24.17;100.00
30584;BME280;17357;59.404;18.414;2022-10-16T05:06:05;100486.09;;;24.21;100.00
30584;BME280;17357;59.404;18.414;2022-10-16T05:08:31;100489.31;;;24.26;100.00
30584;BME280;17357;59.404;18.414;2022-10-16T05:10:56;100482.84;;;24.26;100.00
30584;BME280;17357;59.404;18.414;2022-10-16T05:13:22;100488.91;;;24.31;100.00
30584;BME280;17357;59.404;18.414;2022-10-16T05:15:48;100490.13;;;24.34;100.00
30584;BME280;17357;59.404;18.414;2022-10-16T05:18:14;100484.84;;;24.36;100.00
30584;BME280;17357;59.404;18.414;2022-10-16T05:20:39;100486.09;;;24.38;100.00
30584;BME280;17357;59.404;18.414;2022-10-16T05:23:04;100483.63;;;24.40;100.00
30584;BME280;17357;59.404;18.414;2022-10-16T05:25:30;100485.25;;;24.09;100.00
30584;BME280;17357;59.404;18.414;2022-10-16T05:27:55;100487.69;;;23.93;97.16
30584;BME280;17357;59.404;18.414;2022-10-16T05:30:21;100502.22;;;23.81;95.40
30584;BME280;17357;59.404;18.414;2022-10-16T05:32:48;100482.78;;;23.69;94.08
30584;BME280;17357;59.404;18.414;2022-10-16T05:35:14;100488.00;;;23.60;93.15
30584;BME280;17357;59.404;18.414;2022-10-16T05:37:40;100489.22;;;23.55;92.72
30584;BME280;17357;59.404;18.414;2022-10-16T05:40:06;100479.09;;;23.51;93.10
30584;BME280;17357;59.404;18.414;2022-10-16T05:42:32;100473.81;;;23.46;93.34
30584;BME280;17357;59.404;18.414;2022-10-16T05:44:57;100485.16;;;23.49;93.18
30584;BME280;17357;59.404;18.414;2022-10-16T05:47:22;100481.94;;;23.51;93.35
30584;BME280;17357;59.404;18.414;2022-10-16T05:49:48;100483.50;;;23.45;94.00
30584;BME280;17357;59.404;18.414;2022-10-16T05:52:13;100482.72;;;23.48;93.83
30584;BME280;17357;59.404;18.414;2022-10-16T05:54:38;100485.53;;;23.48;94.42
30584;BME280;17357;59.404;18.414;2022-10-16T05:57:04;100482.72;;;23.48;94.59
30584;BME280;17357;59.404;18.414;2022-10-16T05:59:31;100492.00;;;23.45;94.31
30584;BME280;17357;59.404;18.414;2022-10-16T06:01:56;100497.22;;;23.43;93.98
30584;BME280;17357;59.404;18.414;2022-10-16T06:04:22;100500.47;;;23.45;94.15
30584;BME280;17357;59.404;18.414;2022-10-16T06:06:47;100500.06;;;23.43;94.19
30584;BME280;17357;59.404;18.414;2022-10-16T06:09:13;100507.34;;;23.44;93.78
30584;BME280;17357;59.404;18.414;2022-10-16T06:11:38;100500.88;;;23.40;93.91
30584;BME280;17357;59.404;18.414;2022-10-16T06:14:03;100508.56;;;23.43;93.18
30584;BME280;17357;59.404;18.414;2022-10-16T06:16:33;100507.34;;;23.40;93.15
30584;BME280;17357;59.404;18.414;2022-10-16T06:18:58;100507.34;;;23.40;93.34
30584;BME280;17357;59.404;18.414;2022-10-16T06:21:28;100510.19;;;23.40;93.32
30584;BME280;17357;59.404;18.414;2022-10-16T06:23:54;100509.38;;;23.40;93.00
30584;BME280;17357;59.404;18.414;2022-10-16T06:26:23;100507.75;;;23.39;93.14
30584;BME280;17357;59.404;18.414;2022-10-16T06:28:49;100500.44;;;23.38;93.22
30584;BME280;17357;59.404;18.414;2022-10-16T06:31:15;100507.75;;;23.39;93.99
30584;BME280;17357;59.404;18.414;2022-10-16T06:33:41;100521.50;;;23.40;93.88
30584;BME280;17357;59.404;18.414;2022-10-16T06:36:09;100519.06;;;23.39;94.05
30584;BME280;17357;59.404;18.414;2022-10-16T06:38:35;100519.06;;;23.39;93.69
30584;BME280;17357;59.404;18.414;2022-10-16T06:41:01;100525.97;;;23.41;94.04
30584;BME280;17357;59.404;18.414;2022-10-16T06:43:28;100516.63;;;23.37;94.10
30584;BME280;17357;59.404;18.414;2022-10-16T06:45:57;100531.97;;;23.29;94.69
30584;BME280;17357;59.404;18.414;2022-10-16T06:48:23;100534.03;;;23.43;94.55
30584;BME280;17357;59.404;18.414;2022-10-16T06:50:58;100534.03;;;23.43;94.00
30584;BME280;17357;59.404;18.414;2022-10-16T06:53:26;100536.09;;;23.49;94.27
30584;BME280;17357;59.404;18.414;2022-10-16T06:55:52;100530.41;;;23.46;94.71
30584;BME280;17357;59.404;18.414;2022-10-16T06:58:17;100539.31;;;23.48;94.47
30584;BME280;17357;59.404;18.414;2022-10-16T07:00:43;100532.06;;;23.47;94.90
30584;BME280;17357;59.404;18.414;2022-10-16T07:03:08;100520.75;;;23.47;95.01
30584;BME280;17357;59.404;18.414;2022-10-16T07:05:38;100515.91;;;23.51;94.97
30584;BME280;17357;59.404;18.414;2022-10-16T07:08:04;100528.84;;;23.52;95.37
30584;BME280;17357;59.404;18.414;2022-10-16T07:10:30;100534.50;;;23.52;96.17
30584;BME280;17357;59.404;18.414;2022-10-16T07:12:56;100522.38;;;23.55;95.72
30584;BME280;17357;59.404;18.414;2022-10-16T07:15:21;100524.00;;;23.56;96.27
30584;BME280;17357;59.404;18.414;2022-10-16T07:17:47;100532.06;;;23.54;96.08
30584;BME280;17357;59.404;18.414;2022-10-16T07:20:12;100520.78;;;23.57;95.77
30584;BME280;17357;59.404;18.414;2022-10-16T07:22:37;100518.34;;;23.56;96.22
30584;BME280;17357;59.404;18.414;2022-10-16T07:25:03;100525.63;;;23.57;96.64
30584;BME280;17357;59.404;18.414;2022-10-16T07:27:28;100521.16;;;23.56;96.42
30584;BME280;17357;59.404;18.414;2022-10-16T07:29:54;100534.13;;;23.57;96.74
30584;BME280;17357;59.404;18.414;2022-10-16T07:32:19;100531.28;;;23.60;96.60
30584;BME280;17357;59.404;18.414;2022-10-16T07:34:45;100524.00;;;23.56;96.61
30584;BME280;17357;59.404;18.414;2022-10-16T07:37:10;100532.50;;;23.59;96.68
30584;BME280;17357;59.404;18.414;2022-10-16T07:39:36;100530.06;;;23.58;97.39
30584;BME280;17357;59.404;18.414;2022-10-16T07:42:01;100535.72;;;23.54;97.37
30584;BME280;17357;59.404;18.414;2022-10-16T07:44:27;100543.44;;;23.57;97.03
30584;BME280;17357;59.404;18.414;2022-10-16T07:46:52;100532.09;;;23.61;98.33
30584;BME280;17357;59.404;18.414;2022-10-16T07:49:18;100536.94;;;23.60;98.43
30584;BME280;17357;59.404;18.414;2022-10-16T07:51:43;100543.03;;;23.62;98.27
30584;BME280;17357;59.404;18.414;2022-10-16T07:54:09;100536.56;;;23.65;98.97
30584;BME280;17357;59.404;18.414;2022-10-16T07:56:35;100544.22;;;23.65;98.57
30584;BME280;17357;59.404;18.414;2022-10-16T07:59:00;100526.84;;;23.63;98.28
30584;BME280;17357;59.404;18.414;2022-10-16T08:01:26;100545.88;;;23.62;97.79
30584;BME280;17357;59.404;18.414;2022-10-16T08:03:52;100541.41;;;23.61;97.81
30584;BME280;17357;59.404;18.414;2022-10-16T08:06:18;100538.56;;;23.58;97.18
30584;BME280;17357;59.404;18.414;2022-10-16T08:08:44;100539.38;;;23.58;97.02
30584;BME280;17357;59.404;18.414;2022-10-16T08:11:10;100544.22;;;23.61;97.16
30584;BME280;17357;59.404;18.414;2022-10-16T08:13:35;100545.84;;;23.59;97.49
30584;BME280;17357;59.404;18.414;2022-10-16T08:16:01;100545.03;;;23.58;96.77
30584;BME280;17357;59.404;18.414;2022-10-16T08:18:28;100545.84;;;23.59;97.15
30584;BME280;17357;59.404;18.414;2022-10-16T08:20:58;100546.25;;;23.57;96.70
30584;BME280;17357;59.404;18.414;2022-10-16T08:23:25;100561.22;;;23.61;96.54
30584;BME280;17357;59.404;18.414;2022-10-16T08:25:51;100557.97;;;23.59;96.68
30584;BME280;17357;59.404;18.414;2022-10-16T08:28:18;100560.41;;;23.61;97.43
30584;BME280;17357;59.404;18.414;2022-10-16T08:30:43;100565.69;;;23.62;97.65
30584;BME280;17357;59.404;18.414;2022-10-16T08:33:09;100560.00;;;23.62;97.42
30584;BME280;17357;59.404;18.414;2022-10-16T08:35:34;100561.22;;;23.58;97.40
30584;BME280;17357;59.404;18.414;2022-10-16T08:37:59;100558.81;;;23.63;96.92
30584;BME280;17357;59.404;18.414;2022-10-16T08:40:28;100565.66;;;23.59;96.71
30584;BME280;17357;59.404;18.414;2022-10-16T08:45:49;100569.31;;;23.63;96.87
30584;BME280;17357;59.404;18.414;2022-10-16T08:50:54;100561.63;;;23.60;96.58
30584;BME280;17357;59.404;18.414;2022-10-16T08:53:43;100562.81;;;23.55;96.68
30584;BME280;17357;59.404;18.414;2022-10-16T08:56:10;100568.47;;;23.59;97.04
30584;BME280;17357;59.404;18.414;2022-10-16T08:58:35;100568.09;;;23.60;97.38
30584;BME280;17357;59.404;18.414;2022-10-16T09:01:10;100569.31;;;23.63;96.81
30584;BME280;17357;59.404;18.414;2022-10-16T09:19:09;100571.75;;;23.64;97.95
30584;BME280;17357;59.404;18.414;2022-10-16T09:21:39;100563.66;;;23.63;97.95
30584;BME280;17357;59.404;18.414;2022-10-16T09:24:14;100574.16;;;23.66;98.15
30584;BME280;17357;59.404;18.414;2022-10-16T09:26:42;100568.94;;;23.68;98.39
30584;BME280;17357;59.404;18.414;2022-10-16T09:29:11;100561.22;;;23.65;98.24
30584;BME280;17357;59.404;18.414;2022-10-16T09:31:37;100570.94;;;23.71;98.47
30584;BME280;17357;59.404;18.414;2022-10-16T09:34:04;100573.38;;;23.72;98.84
30584;BME280;17357;59.404;18.414;2022-10-16T09:36:42;100573.38;;;23.72;98.74
30584;BME280;17357;59.404;18.414;2022-10-16T09:39:10;100566.91;;;23.72;98.31
30584;BME280;17357;59.404;18.414;2022-10-16T09:41:39;100570.94;;;23.71;98.61
30584;BME280;17357;59.404;18.414;2022-10-16T09:46:41;100571.75;;;23.68;98.42
30584;BME280;17357;59.404;18.414;2022-10-16T09:49:26;100567.69;;;23.62;98.40
30584;BME280;17357;59.404;18.414;2022-10-16T09:52:04;100565.69;;;23.66;98.72
30584;BME280;17357;59.404;18.414;2022-10-16T09:54:29;100570.56;;;23.69;98.78
30584;BME280;17357;59.404;18.414;2022-10-16T09:57:04;100564.06;;;23.65;98.75
30584;BME280;17357;59.404;18.414;2022-10-16T09:59:31;100564.91;;;23.72;99.00
30584;BME280;17357;59.404;18.414;2022-10-16T10:02:01;100574.19;;;23.73;99.25
30584;BME280;17357;59.404;18.414;2022-10-16T10:04:38;100567.72;;;23.69;99.58
30584;BME280;17357;59.404;18.414;2022-10-16T10:07:04;100566.53;;;23.73;99.78
30584;BME280;17357;59.404;18.414;2022-10-16T10:09:38;100558.03;;;23.70;99.98
30584;BME280;17357;59.404;18.414;2022-10-16T10:12:14;100568.16;;;23.74;99.83
30584;BME280;17357;59.404;18.414;2022-10-16T10:14:47;100569.75;;;23.72;99.80
30584;BME280;17357;59.404;18.414;2022-10-16T10:19:54;100563.69;;;23.73;99.24
30584;BME280;17357;59.404;18.414;2022-10-16T10:55:09;100573.00;;;23.74;98.21
30584;BME280;17357;59.404;18.414;2022-10-16T10:57:53;100563.28;;;23.75;97.84
30584;BME280;17357;59.404;18.414;2022-10-16T11:00:34;100566.53;;;23.73;97.55
30584;BME280;17357;59.404;18.414;2022-10-16T11:03:39;100569.31;;;23.66;97.63
30584;BME280;17357;59.404;18.414;2022-10-16T11:06:12;100554.81;;;23.75;98.44
30584;BME280;17357;59.404;18.414;2022-10-16T11:11:20;100551.13;;;23.67;98.02
30584;BME280;17357;59.404;18.414;2022-10-16T11:14:04;100554.81;;;23.75;98.53
30584;BME280;17357;59.404;18.414;2022-10-16T11:16:39;100553.59;;;23.76;98.17
30584;BME280;17357;59.404;18.414;2022-10-16T11:19:13;100554.00;;;23.78;98.19
30584;BME280;17357;59.404;18.414;2022-10-16T11:24:44;100535.38;;;23.77;98.41
30584;BME280;17357;59.404;18.414;2022-10-16T11:27:15;100529.72;;;23.73;98.83
30584;BME280;17357;59.404;18.414;2022-10-16T11:29:52;100532.97;;;23.79;99.31
30584;BME280;17357;59.404;18.414;2022-10-16T11:32:25;100536.22;;;23.81;99.53
30584;BME280;17357;59.404;18.414;2022-10-16T11:34:57;100537.00;;;23.78;99.69
30584;BME280;17357;59.404;18.414;2022-10-16T11:37:33;100530.13;;;23.79;99.04
30584;BME280;17357;59.404;18.414;2022-10-16T11:40:22;100523.25;;;23.80;97.88
30584;BME280;17357;59.404;18.414;2022-10-16T11:43:10;100524.03;;;23.77;97.12
30584;BME280;17357;59.404;18.414;2022-10-16T11:45:42;100518.78;;;23.83;98.56
30584;BME280;17357;59.404;18.414;2022-10-16T11:50:52;100517.59;;;23.84;99.71
30584;BME280;17357;59.404;18.414;2022-10-16T11:56:17;100516.38;;;23.81;99.21
30584;BME280;17357;59.404;18.414;2022-10-16T12:07:01;100487.66;;;23.86;100.00
30584;BME280;17357;59.404;18.414;2022-10-16T12:09:33;100483.63;;;23.87;100.00
30584;BME280;17357;59.404;18.414;2022-10-16T12:12:00;100481.19;;;23.89;100.00
30584;BME280;17357;59.404;18.414;2022-10-16T12:19:57;100480.38;;;23.85;100.00
30584;BME280;17357;59.404;18.414;2022-10-16T12:22:23;100475.50;;;23.89;100.00
30584;BME280;17357;59.404;18.414;2022-10-16T12:24:51;100460.97;;;23.87;99.61
30584;BME280;17357;59.404;18.414;2022-10-16T12:27:36;100454.47;;;23.83;99.26
30584;BME280;17357;59.404;18.414;2022-10-16T12:30:04;100448.81;;;23.90;99.54
30584;BME280;17357;59.404;18.414;2022-10-16T12:32:33;100446.00;;;23.87;99.22
30584;BME280;17357;59.404;18.414;2022-10-16T12:35:00;100449.63;;;23.87;99.72
30584;BME280;17357;59.404;18.414;2022-10-16T12:37:35;100451.22;;;23.88;99.77
30584;BME280;17357;59.404;18.414;2022-10-16T12:40:36;100451.66;;;23.87;99.15
30584;BME280;17357;59.404;18.414;2022-10-16T12:45:45;100450.84;;;23.93;99.28
30584;BME280;17357;59.404;18.414;2022-10-16T12:48:20;100426.56;;;23.85;99.32
30584;BME280;17357;59.404;18.414;2022-10-16T12:50:46;100426.16;;;23.90;99.49
30584;BME280;17357;59.404;18.414;2022-10-16T12:53:24;100426.97;;;23.87;99.77
30584;BME280;17357;59.404;18.414;2022-10-16T13:04:26;100421.69;;;23.89;97.88
30584;BME280;17357;59.404;18.414;2022-10-16T13:15:19;100410.38;;;23.89;99.00
30584;BME280;17357;59.404;18.414;2022-10-16T13:18:14;100407.53;;;23.89;99.01
30584;BME280;17357;59.404;18.414;2022-10-16T13:21:01;100398.25;;;23.92;99.44
30584;BME280;17357;59.404;18.414;2022-10-16T13:29:07;100380.44;;;23.99;99.49
30584;BME280;17357;59.404;18.414;2022-10-16T13:31:33;100379.63;;;23.98;99.68
30584;BME280;17357;59.404;18.414;2022-10-16T13:34:00;100387.31;;;24.01;99.85
30584;BME280;17357;59.404;18.414;2022-10-16T13:36:27;100384.06;;;24.03;100.00
30584;BME280;17357;59.404;18.414;2022-10-16T13:39:10;100383.69;;;23.97;100.00
30584;BME280;17357;59.404;18.414;2022-10-16T13:41:37;100386.91;;;24.03;100.00
30584;BME280;17357;59.404;18.414;2022-10-16T13:44:02;100362.63;;;24.02;100.00
30584;BME280;17357;59.404;18.414;2022-10-16T13:46:29;100365.44;;;24.05;100.00
30584;BME280;17357;59.404;18.414;2022-10-16T13:49:05;100350.88;;;24.00;100.00
30584;BME280;17357;59.404;18.414;2022-10-16T13:51:31;100342.78;;;24.05;100.00
30584;BME280;17357;59.404;18.414;2022-10-16T13:53:58;100346.03;;;24.07;100.00
30584;BME280;17357;59.404;18.414;2022-10-16T13:56:28;100358.56;;;24.06;100.00
30584;BME280;17357;59.404;18.414;2022-10-16T13:59:01;100358.97;;;23.94;100.00
30584;BME280;17357;59.404;18.414;2022-10-16T14:01:31;100363.84;;;24.04;100.00
30584;BME280;17357;59.404;18.414;2022-10-16T14:04:06;100358.97;;;24.08;100.00
30584;BME280;17357;59.404;18.414;2022-10-16T14:06:33;100358.97;;;24.12;100.00
30584;BME280;17357;59.404;18.414;2022-10-16T14:11:45;100366.25;;;24.09;100.00
30584;BME280;17357;59.404;18.414;2022-10-16T14:14:12;100364.63;;;24.08;100.00
30584;BME280;17357;59.404;18.414;2022-10-16T14:16:41;100375.56;;;24.10;100.00
30584;BME280;17357;59.404;18.414;2022-10-16T14:19:17;100372.72;;;24.06;100.00
30584;BME280;17357;59.404;18.414;2022-10-16T14:21:43;100365.03;;;24.07;100.00
30584;BME280;17357;59.404;18.414;2022-10-16T14:24:13;100358.97;;;24.08;100.00
30584;BME280;17357;59.404;18.414;2022-10-16T14:26:46;100356.16;;;24.05;99.99
30584;BME280;17357;59.404;18.414;2022-10-16T14:29:17;100359.38;;;24.07;99.59
30584;BME280;17357;59.404;18.414;2022-10-16T14:31:54;100362.59;;;24.05;99.89
30584;BME280;17357;59.404;18.414;2022-10-16T14:34:34;100374.38;;;24.04;99.37
30584;BME280;17357;59.404;18.414;2022-10-16T14:37:06;100384.88;;;24.07;99.73
30584;BME280;17357;59.404;18.414;2022-10-16T14:39:34;100380.81;;;24.08;99.22
30584;BME280;17357;59.404;18.414;2022-10-16T14:42:00;100373.56;;;24.03;98.77
30584;BME280;17357;59.404;18.414;2022-10-16T14:44:29;100380.41;;;24.06;99.59